Decoded Metar for KBFD (BRADFORD in PA, USA) (IATA:BFD) | Meteo·Mobile Aviation Weather
aviador You're here:

KBFD Decoded Metar

BRADFORD in PA, USA
Report Time2018-11-17 06:53:00
UTC Time2018-11-17 08:48:15
Flight Rules Old
Wind270° at 07 kt
W.Decomp.*RWY 32: 5.4 kt HW 4.4 kt LCW
RWY 23: 4.4 kt HW 5.4 kt RCW
W.Rank270° ranks 6
Current wind is below 270° avg. (7.5)
Visibility9656 m
Phenomena:Mist
Clouds:Broken 008 Hf
Broken 013 Hf
Overcast 029 Hf
Expected CloudBase > 400 ft AGL from Temp-Dew spread
Ceiling800 ft
Temp00°C (ISA -11)
Dew Point-1°C (93% RH)
AAT-4.6°C
QNH1015 hPa
Density Alt830 ft
Elevation2,123 ft
Report Wrong Elevation
Raw Report
KBFD 170653Z AUTO 27007KT 6SM BR BKN008 BKN013 OVC029 00/M01 A2997
RMK AO2 CIG 006V010 SLP169 T00001011=

Extra information for KBFD:More info

Metar Taf Metar & Taf Last 4 Metars F.Rules Stats Wind Profile Meteogram Temp Stats Airport Information Weather charts Add Link Nearby VenuesMetar ALERT Operation Metar Decoded Social comments

AIRNAV info for KBFD